Time;durP1;ratioP1;P1;durP2;ratioP2;P2;SDS_P1;SDS_P2;PMS_P1;PMS_P2;Temp;Humidity;BMP_temperature;BMP_pressure;BME280_temperature;BME280_humidity;BME280_pressure;Samples;Min_cycle;Max_cycle;Signal;HPM_P1;HPM_P2
2022/04/13 00:00:13;;;;;;;5.07;3.67;;;;;;;11.79;34.89;101509.53;5106073;28;20412;-47
2022/04/13 00:02:40;;;;;;;4.95;3.30;;;;;;;11.74;34.75;101506.50;5105877;28;20448;-47
2022/04/13 00:05:10;;;;;;;4.78;3.53;;;;;;;11.83;34.87;101512.72;5106722;28;20932;-47
2022/04/13 00:07:37;;;;;;;6.80;4.10;;;;;;;11.87;34.56;101519.34;5106977;28;20405;-47
2022/04/13 00:10:06;;;;;;;5.88;3.90;;;;;;;11.84;34.46;101517.00;5106113;28;20424;-47
2022/04/13 00:13:34;;;;;;;6.35;4.07;;;;;;;11.82;34.59;101522.47;5112186;27;2089584;-47
2022/04/13 00:16:01;;;;;;;5.68;4.15;;;;;;;11.83;34.54;101529.47;5148773;27;20486;-48
2022/04/13 00:18:28;;;;;;;7.22;3.90;;;;;;;11.77;34.81;101527.44;5148379;27;20978;-47
2022/04/13 00:20:55;;;;;;;5.00;3.88;;;;;;;11.66;34.94;101530.34;5148202;27;20783;-47
2022/04/13 00:23:22;;;;;;;5.07;3.90;;;;;;;11.56;35.18;101524.31;5148266;27;20461;-47
2022/04/13 00:25:49;;;;;;;6.13;4.43;;;;;;;11.38;35.30;101525.22;5147912;27;20433;-48
2022/04/13 00:28:16;;;;;;;8.25;4.60;;;;;;;11.32;35.55;101523.16;5148176;27;20422;-46
2022/04/13 00:30:45;;;;;;;7.90;4.53;;;;;;;11.36;35.32;101526.34;5148355;27;20409;-48
2022/04/13 00:33:12;;;;;;;6.43;4.85;;;;;;;11.36;35.43;101532.50;5148049;27;20421;-47
2022/04/13 00:35:39;;;;;;;7.60;4.73;;;;;;;11.37;35.10;101533.31;5147995;27;20488;-47
2022/04/13 00:38:06;;;;;;;6.97;4.68;;;;;;;11.12;35.89;101527.00;5148365;27;20409;-47
2022/04/13 00:40:36;;;;;;;7.82;5.30;;;;;;;11.09;35.99;101530.78;5147694;27;20910;-47
2022/04/13 00:44:06;;;;;;;9.70;5.40;;;;;;;11.24;36.00;101536.38;5106694;27;20436;-48
2022/04/13 00:46:34;;;;;;;6.93;4.90;;;;;;;11.36;35.39;101527.19;5107756;28;20474;-47
2022/04/13 00:49:02;;;;;;;7.75;5.03;;;;;;;11.19;35.74;101525.41;5107626;28;20470;-51
2022/04/13 00:51:29;;;;;;;7.43;5.27;;;;;;;11.14;36.11;101533.81;5091993;28;20453;-47
2022/04/13 00:53:58;;;;;;;6.30;5.03;;;;;;;11.22;35.34;101533.06;5086921;28;20871;-47
2022/04/13 00:56:27;;;;;;;8.37;5.20;;;;;;;11.26;35.79;101535.22;5086849;28;20436;-47
2022/04/13 00:58:56;;;;;;;7.53;5.00;;;;;;;11.20;35.38;101543.81;5087056;28;20403;-47
2022/04/13 01:01:26;;;;;;;6.90;5.00;;;;;;;11.22;36.00;101536.53;5086169;28;20424;-48
2022/04/13 01:03:54;;;;;;;6.82;4.90;;;;;;;11.15;35.98;101538.13;5086206;28;20429;-47
2022/04/13 01:06:21;;;;;;;7.23;5.10;;;;;;;11.13;36.23;101539.25;5086840;28;20452;-48
2022/04/13 01:08:50;;;;;;;6.70;5.40;;;;;;;11.12;35.85;101541.09;5086584;28;20408;-47
2022/04/13 01:11:18;;;;;;;8.80;5.13;;;;;;;11.03;36.33;101537.53;5086593;28;20446;-47
2022/04/13 01:13:45;;;;;;;7.00;5.18;;;;;;;10.89;36.08;101538.06;5086087;28;20425;-49
2022/04/13 01:18:42;;;;;;;7.82;4.93;;;;;;;10.89;36.49;101543.38;5106699;27;20445;-46
2022/04/13 01:21:12;;;;;;;8.57;5.30;;;;;;;10.79;36.66;101538.16;5107620;28;20409;-46
2022/04/13 01:23:41;;;;;;;7.28;5.40;;;;;;;10.68;36.67;101541.84;5106030;28;20937;-46
2022/04/13 01:26:10;;;;;;;8.15;5.20;;;;;;;10.78;36.16;101540.94;5086759;28;20418;-46
2022/04/13 01:28:37;;;;;;;7.80;5.30;;;;;;;10.71;36.58;101540.72;5086834;28;20418;-45
2022/04/13 01:31:04;;;;;;;8.32;5.10;;;;;;;10.71;37.06;101535.41;5087018;28;20420;-46
2022/04/13 01:33:32;;;;;;;7.50;5.17;;;;;;;10.71;36.59;101541.56;5087089;28;20444;-45
2022/04/13 01:36:01;;;;;;;8.52;5.30;;;;;;;10.65;36.57;101546.63;5086026;28;20815;-46
2022/04/13 01:38:29;;;;;;;7.70;5.40;;;;;;;10.63;36.84;101545.94;5086534;28;20832;-46
2022/04/13 01:40:58;;;;;;;7.32;5.13;;;;;;;10.63;36.87;101551.25;5086413;28;20456;-46
2022/04/13 01:43:25;;;;;;;7.07;5.10;;;;;;;10.57;37.44;101552.69;5086577;28;20414;-46
2022/04/13 01:45:54;;;;;;;8.07;5.30;;;;;;;10.51;37.48;101555.91;5086820;28;20422;-48
2022/04/13 01:48:21;;;;;;;8.32;5.30;;;;;;;10.58;37.01;101551.69;5086745;28;20438;-46
2022/04/13 01:50:49;;;;;;;7.43;5.47;;;;;;;10.52;37.05;101558.41;5086355;28;20414;-46
2022/04/13 01:53:16;;;;;;;8.40;5.47;;;;;;;10.59;37.70;101555.16;5085973;28;20424;-56
2022/04/13 01:55:43;;;;;;;7.80;5.75;;;;;;;10.26;37.93;101560.06;5086017;28;20410;-46
2022/04/13 01:58:11;;;;;;;7.97;5.27;;;;;;;9.85;38.39;101562.16;5078851;28;20535;-46
2022/04/13 02:02:36;;;;;;;8.33;6.00;;;;;;;9.71;39.14;101571.44;5117648;27;20476;-47
2022/04/13 02:05:03;;;;;;;7.28;5.40;;;;;;;9.73;39.18;101580.88;5107927;28;20420;-47
2022/04/13 02:07:30;;;;;;;8.25;5.80;;;;;;;10.01;38.74;101577.47;5107170;28;20408;-46
2022/04/13 02:09:57;;;;;;;8.40;5.50;;;;;;;9.80;39.26;101582.97;5107487;28;20473;-46
2022/04/13 02:12:24;;;;;;;7.45;5.40;;;;;;;9.45;39.95;101576.47;5107118;28;20467;-46
2022/04/13 02:14:51;;;;;;;8.27;6.00;;;;;;;9.65;38.89;101575.50;5107064;28;20447;-46
2022/04/13 02:17:19;;;;;;;8.93;5.47;;;;;;;9.93;38.73;101583.47;5107039;28;20466;-46
2022/04/13 02:19:48;;;;;;;6.22;5.30;;;;;;;10.02;38.72;101579.97;5107321;28;20412;-46
2022/04/13 02:22:15;;;;;;;8.37;5.30;;;;;;;9.90;38.46;101581.97;5107171;28;20424;-46
2022/04/13 02:24:42;;;;;;;7.00;5.40;;;;;;;9.89;38.34;101574.16;5107276;28;20415;-47
2022/04/13 02:27:09;;;;;;;7.82;5.55;;;;;;;9.81;38.69;101580.16;5106179;28;20424;-46
2022/04/13 02:29:37;;;;;;;8.47;5.67;;;;;;;9.59;39.41;101585.81;5107092;28;20498;-46
2022/04/13 02:32:05;;;;;;;8.18;5.80;;;;;;;9.43;40.01;101583.72;5106729;28;20898;-51
2022/04/13 02:36:16;;;;;;;9.27;5.95;;;;;;;9.52;39.98;101588.16;5106732;27;20404;-46
2022/04/13 02:38:43;;;;;;;9.20;6.70;;;;;;;9.16;41.05;101591.41;5107329;28;20422;-47
2022/04/13 02:41:10;;;;;;;8.55;6.22;;;;;;;9.02;41.36;101590.97;5092845;28;20467;-47
2022/04/13 02:43:37;;;;;;;9.00;6.75;;;;;;;8.85;41.88;101592.50;5086832;28;20413;-46
2022/04/13 02:46:04;;;;;;;11.68;7.32;;;;;;;8.87;42.12;101590.53;5086755;28;20496;-47
2022/04/13 02:48:31;;;;;;;10.90;7.30;;;;;;;8.72;42.43;101598.03;5086706;28;20464;-48
2022/04/13 02:50:58;;;;;;;11.52;7.45;;;;;;;8.90;41.87;101591.09;5086228;28;20418;-46
2022/04/13 02:53:27;;;;;;;10.80;7.25;;;;;;;8.64;42.40;101601.34;5086835;28;20447;-47
2022/04/13 02:55:54;;;;;;;10.02;7.13;;;;;;;8.38;43.51;101607.06;5083096;28;20449;-46
2022/04/13 02:58:21;;;;;;;10.38;7.43;;;;;;;8.47;43.34;101605.47;5086442;28;20472;-47
2022/04/13 03:00:48;;;;;;;9.63;7.30;;;;;;;8.85;42.67;101598.59;5085497;28;20457;-47
2022/04/13 03:03:16;;;;;;;9.93;7.40;;;;;;;8.89;42.20;101602.63;5086466;28;20803;-47
2022/04/13 03:05:43;;;;;;;18.38;13.65;;;;;;;8.99;42.21;101597.38;5086819;28;20417;-46
2022/04/13 03:08:10;;;;;;;12.45;8.95;;;;;;;8.70;42.87;101605.28;5086398;28;20418;-47
2022/04/13 03:10:39;;;;;;;12.55;9.80;;;;;;;8.72;43.19;101614.72;5085823;28;20800;-46
2022/04/13 03:13:06;;;;;;;12.63;11.27;;;;;;;8.36;43.70;101610.84;5085831;28;20426;-47
2022/04/13 03:15:33;;;;;;;13.13;10.15;;;;;;;8.17;44.30;101622.97;5086112;28;20873;-47
2022/04/13 03:18:00;;;;;;;17.77;11.00;;;;;;;8.08;44.40;101620.28;5086129;28;20406;-47
2022/04/13 03:21:06;;;;;;;15.05;11.40;;;;;;;7.95;45.54;101623.97;5114325;27;2107567;-48
2022/04/13 03:23:33;;;;;;;14.38;11.30;;;;;;;7.93;45.42;101623.28;5149254;27;20409;-48
2022/04/13 03:26:00;;;;;;;17.88;12.13;;;;;;;7.78;45.60;101629.88;5148249;27;20524;-47
2022/04/13 03:28:27;;;;;;;17.30;12.40;;;;;;;7.75;45.50;101635.38;5148338;27;20412;-47
2022/04/13 03:30:54;;;;;;;17.67;12.63;;;;;;;7.70;45.48;101641.03;5148058;27;20454;-47
2022/04/13 03:33:21;;;;;;;19.85;14.15;;;;;;;7.72;45.97;101644.38;5146711;27;20829;-46
2022/04/13 03:35:48;;;;;;;21.60;13.82;;;;;;;7.77;45.66;101644.00;5148285;27;20926;-48
2022/04/13 03:38:16;;;;;;;20.45;14.80;;;;;;;7.66;45.81;101647.56;5095193;27;20404;-49
2022/04/13 03:40:43;;;;;;;21.20;14.70;;;;;;;7.58;45.74;101650.84;5147579;27;20427;-48
2022/04/13 03:43:10;;;;;;;19.80;13.02;;;;;;;7.62;46.13;101659.34;5147374;27;20449;-47
2022/04/13 03:45:37;;;;;;;18.88;13.80;;;;;;;7.58;45.85;101664.03;5147762;27;20401;-49
2022/04/13 03:48:05;;;;;;;20.70;14.90;;;;;;;7.64;46.19;101666.16;5147330;27;20870;-47
2022/04/13 03:50:32;;;;;;;19.08;13.57;;;;;;;7.54;46.26;101678.41;5147384;27;20898;-47
2022/04/13 03:52:59;;;;;;;20.48;14.73;;;;;;;7.55;45.95;101682.75;5146510;27;20809;-46
2022/04/13 03:55:27;;;;;;;18.67;12.70;;;;;;;7.55;46.23;101680.09;5143895;27;20850;-49
2022/04/13 03:57:54;;;;;;;19.33;14.00;;;;;;;7.77;45.62;101695.00;5147122;27;20441;-47
2022/04/13 04:00:21;;;;;;;19.73;14.13;;;;;;;7.71;45.86;101690.22;5146357;27;20885;-52
2022/04/13 04:02:48;;;;;;;20.45;14.95;;;;;;;7.94;44.99;101698.88;5143711;27;20432;-48
2022/04/13 04:05:15;;;;;;;23.13;16.02;;;;;;;7.98;44.99;101700.28;5144860;27;20429;-47
2022/04/13 04:07:42;;;;;;;22.95;16.00;;;;;;;8.19;44.41;101700.28;5140767;27;20413;-47
2022/04/13 04:10:10;;;;;;;22.30;15.70;;;;;;;8.04;44.46;101696.28;5139805;27;20415;-48
2022/04/13 04:12:40;;;;;;;21.75;15.23;;;;;;;8.14;44.25;101710.41;5145681;27;20417;-48
2022/04/13 04:15:09;;;;;;;23.63;15.37;;;;;;;8.33;44.15;101711.47;5130278;27;20405;-47
2022/04/13 04:17:36;;;;;;;21.10;14.85;;;;;;;8.80;43.04;101709.22;5125899;27;20414;-48
2022/04/13 04:20:04;;;;;;;32.35;18.92;;;;;;;9.07;42.21;101716.53;5128986;27;20795;-51
2022/04/13 04:22:31;;;;;;;28.92;18.65;;;;;;;9.29;42.49;101715.47;5142504;27;20427;-48
2022/04/13 04:25:01;;;;;;;32.25;17.27;;;;;;;9.62;41.92;101715.25;5147032;27;20412;-47
2022/04/13 04:27:28;;;;;;;32.67;17.52;;;;;;;9.82;41.54;101716.06;5139901;27;20861;-47
2022/04/13 04:29:57;;;;;;;25.60;18.45;;;;;;;10.03;41.05;101715.88;5135598;27;20421;-47
2022/04/13 04:32:24;;;;;;;24.60;17.30;;;;;;;10.20;40.50;101717.00;5115358;27;20416;-48
2022/04/13 04:34:51;;;;;;;27.40;20.10;;;;;;;10.32;40.40;101721.19;5113066;27;20415;-47
2022/04/13 04:37:18;;;;;;;40.97;36.57;;;;;;;10.55;39.70;101729.59;5111954;27;20412;-47
2022/04/13 04:39:45;;;;;;;28.45;23.48;;;;;;;10.65;39.07;101734.88;5114920;27;20432;-48
2022/04/13 04:42:12;;;;;;;28.85;24.75;;;;;;;10.77;38.61;101740.81;5130420;27;20409;-47
2022/04/13 04:44:39;;;;;;;27.65;19.08;;;;;;;10.87;38.29;101754.88;5116256;27;20437;-47
2022/04/13 04:47:08;;;;;;;34.13;25.00;;;;;;;11.10;37.92;101753.53;5110659;27;20411;-48
2022/04/13 04:49:35;;;;;;;33.90;28.08;;;;;;;11.21;37.40;101754.31;5109631;27;20399;-48
2022/04/13 04:52:03;;;;;;;29.20;20.35;;;;;;;11.48;37.26;101761.41;5126252;27;20414;-48
2022/04/13 04:54:30;;;;;;;21.88;14.75;;;;;;;11.70;36.51;101751.31;5111194;28;20935;-47
2022/04/13 04:56:57;;;;;;;20.85;12.02;;;;;;;11.98;36.24;101752.94;5129129;27;20453;-50
2022/04/13 04:59:24;;;;;;;18.20;11.40;;;;;;;12.33;35.81;101753.03;5130554;27;20418;-50
2022/04/13 05:01:51;;;;;;;15.20;10.10;;;;;;;12.66;34.94;101761.19;5132304;27;20546;-48
2022/04/13 05:04:19;;;;;;;18.08;11.25;;;;;;;12.96;34.21;101754.53;5132377;27;20537;-47
2022/04/13 05:06:46;;;;;;;16.80;12.05;;;;;;;13.22;33.67;101750.94;5131471;27;20438;-48
2022/04/13 05:09:17;;;;;;;16.60;12.65;;;;;;;13.49;33.58;101749.91;5130953;27;20472;-48
2022/04/13 05:11:44;;;;;;;13.30;9.90;;;;;;;13.75;32.75;101747.09;5129961;27;20416;-49
2022/04/13 05:14:12;;;;;;;12.65;9.00;;;;;;;13.94;32.44;101748.63;5129998;27;20440;-48
2022/04/13 05:16:38;;;;;;;13.07;8.23;;;;;;;14.23;32.24;101753.44;5130468;27;20495;-50
2022/04/13 05:19:06;;;;;;;12.93;8.57;;;;;;;14.35;31.56;101753.91;5130097;27;20410;-48
2022/04/13 05:21:34;;;;;;;11.88;8.18;;;;;;;14.60;31.64;101753.88;5130110;27;20508;-49
2022/04/13 05:24:01;;;;;;;11.57;8.50;;;;;;;14.99;30.99;101761.09;5131028;27;20408;-49
2022/04/13 05:26:28;;;;;;;10.95;8.02;;;;;;;15.26;30.48;101757.13;5131902;27;20442;-50
2022/04/13 05:28:55;;;;;;;11.93;8.00;;;;;;;15.35;30.10;101755.25;5132249;27;20501;-46
2022/04/13 05:31:23;;;;;;;13.80;8.98;;;;;;;15.35;29.70;101757.91;5131332;27;20416;-46
2022/04/13 05:33:50;;;;;;;14.73;9.50;;;;;;;15.43;29.96;101760.53;5132045;27;20436;-48
2022/04/13 05:36:17;;;;;;;16.35;9.68;;;;;;;15.63;29.62;101753.72;5131923;27;20895;-50
2022/04/13 05:38:45;;;;;;;14.52;8.57;;;;;;;16.09;28.59;101760.09;5130714;27;20405;-47
2022/04/13 05:41:12;;;;;;;13.77;8.77;;;;;;;17.19;27.31;101751.34;5130598;27;20927;-48
2022/04/13 05:43:39;;;;;;;14.60;9.38;;;;;;;18.28;25.80;101750.34;5129932;27;20410;-50
2022/04/13 05:46:06;;;;;;;13.48;8.45;;;;;;;19.05;24.95;101754.72;5132091;27;20420;-48
2022/04/13 05:48:33;;;;;;;13.30;7.57;;;;;;;18.68;25.08;101751.41;5130870;27;20414;-45
2022/04/13 05:51:00;;;;;;;10.82;7.63;;;;;;;18.42;25.50;101749.41;5130999;27;20442;-48
2022/04/13 05:53:27;;;;;;;12.88;7.90;;;;;;;18.57;25.45;101751.16;5132077;27;20406;-48
2022/04/13 05:55:57;;;;;;;9.93;7.13;;;;;;;18.43;25.31;101759.09;5130762;27;20416;-51
2022/04/13 05:58:25;;;;;;;10.30;7.10;;;;;;;18.66;25.05;101748.09;5131498;27;20413;-50
2022/04/13 06:00:52;;;;;;;9.30;6.57;;;;;;;18.76;25.01;101757.66;5130922;27;20425;-46
2022/04/13 06:03:19;;;;;;;8.10;6.90;;;;;;;18.62;24.95;101760.28;5130725;27;20971;-51
2022/04/13 06:05:46;;;;;;;8.87;6.80;;;;;;;18.33;25.46;101759.47;5131758;27;20417;-50
2022/04/13 06:08:13;;;;;;;8.95;7.10;;;;;;;18.22;25.85;101765.38;5131088;27;20458;-48
2022/04/13 06:10:41;;;;;;;9.48;6.88;;;;;;;18.36;25.77;101760.09;5130539;27;20437;-48
2022/04/13 06:13:09;;;;;;;9.43;6.90;;;;;;;18.43;25.38;101771.72;5130375;27;20420;-47
2022/04/13 06:15:36;;;;;;;8.52;6.97;;;;;;;18.19;25.92;101778.38;5130461;27;20497;-47
2022/04/13 06:18:04;;;;;;;8.80;7.03;;;;;;;17.96;26.17;101784.75;5130835;27;20474;-49
2022/04/13 06:20:31;;;;;;;10.27;6.95;;;;;;;17.96;26.53;101790.13;5130656;27;20505;-47
2022/04/13 06:22:58;;;;;;;9.30;7.05;;;;;;;17.57;26.98;101789.53;5131046;27;20791;-48
2022/04/13 06:25:25;;;;;;;10.23;6.97;;;;;;;17.82;26.95;101788.31;5125007;27;20418;-46
2022/04/13 06:27:52;;;;;;;10.15;6.75;;;;;;;18.17;26.71;101788.44;5129620;27;20825;-46
2022/04/13 06:30:20;;;;;;;8.82;6.85;;;;;;;18.13;26.96;101796.03;5131204;27;20407;-46
2022/04/13 06:32:48;;;;;;;9.07;7.03;;;;;;;17.43;28.03;101800.28;5131029;27;20412;-46
2022/04/13 06:35:16;;;;;;;9.15;7.30;;;;;;;17.88;27.60;101792.94;5130865;27;20925;-46
2022/04/13 06:37:44;;;;;;;9.10;6.97;;;;;;;16.98;28.23;101801.19;5130828;27;20974;-46
2022/04/13 06:40:13;;;;;;;8.60;6.40;;;;;;;16.94;27.90;101802.56;5131069;27;20430;-47
2022/04/13 06:42:41;;;;;;;9.00;6.50;;;;;;;16.41;28.75;101794.56;5129977;27;20410;-47
2022/04/13 06:45:10;;;;;;;7.35;6.18;;;;;;;15.70;29.68;101806.47;5129617;27;20420;-51
2022/04/13 06:47:39;;;;;;;8.40;6.22;;;;;;;15.97;28.86;101797.97;5128607;27;20930;-47
2022/04/13 06:50:08;;;;;;;8.13;5.93;;;;;;;15.12;29.91;101809.44;5129292;27;20401;-46
2022/04/13 06:52:36;;;;;;;7.07;6.38;;;;;;;15.19;30.09;101806.91;5130774;27;20409;-47
2022/04/13 06:55:04;;;;;;;8.38;6.43;;;;;;;15.24;30.18;101816.06;5130337;27;20907;-45
2022/04/13 06:57:33;;;;;;;8.88;6.90;;;;;;;14.77;30.52;101814.22;5130499;27;20433;-47
2022/04/13 07:00:00;;;;;;;9.73;7.22;;;;;;;15.03;31.90;101813.97;5130447;27;20409;-50
2022/04/13 07:02:27;;;;;;;9.55;7.50;;;;;;;15.15;30.79;101818.94;5130775;27;20413;-46
2022/04/13 07:04:56;;;;;;;8.93;7.32;;;;;;;15.64;30.22;101818.69;5123443;27;20411;-47
2022/04/13 07:07:23;;;;;;;10.35;7.30;;;;;;;15.54;29.69;101816.25;5127525;27;20417;-46
2022/04/13 07:09:50;;;;;;;9.63;8.63;;;;;;;14.93;31.12;101816.03;5117238;27;20430;-46
2022/04/13 07:12:17;;;;;;;9.38;7.10;;;;;;;15.38;30.46;101814.50;5127383;27;20418;-47
2022/04/13 07:14:43;;;;;;;9.75;7.00;;;;;;;15.17;30.46;101817.75;5116145;27;20417;-46
2022/04/13 07:17:11;;;;;;;9.13;7.00;;;;;;;15.03;30.52;101827.31;5122985;28;20437;-47
2022/04/13 07:19:38;;;;;;;10.43;6.65;;;;;;;15.00;30.62;101832.16;5114068;27;20973;-46
2022/04/13 07:22:07;;;;;;;9.18;7.30;;;;;;;16.03;28.75;101821.31;5118494;27;20459;-46
2022/04/13 07:24:34;;;;;;;8.93;6.70;;;;;;;18.52;25.04;101819.69;5111633;28;20415;-46
2022/04/13 07:27:01;;;;;;;9.00;7.10;;;;;;;19.79;23.57;101820.31;5120609;27;20853;-47
2022/04/13 07:29:28;;;;;;;8.83;6.87;;;;;;;21.35;21.54;101821.56;5116297;27;20402;-47
2022/04/13 07:31:55;;;;;;;8.90;6.80;;;;;;;23.47;19.31;101825.34;5121357;27;20800;-47
2022/04/13 07:34:22;;;;;;;8.57;7.05;;;;;;;25.24;17.74;101808.38;5116094;27;20872;-47
2022/04/13 07:36:49;;;;;;;9.55;7.15;;;;;;;25.30;17.10;101815.56;5120794;27;20440;-47
2022/04/13 07:39:17;;;;;;;10.68;7.20;;;;;;;25.24;17.21;101810.25;5114881;28;20447;-47
2022/04/13 07:41:44;;;;;;;8.40;6.40;;;;;;;25.72;16.38;101819.88;5113085;28;20427;-47
2022/04/13 07:44:12;;;;;;;9.53;6.90;;;;;;;25.00;17.20;101818.47;5115733;27;20418;-50
2022/04/13 07:46:39;;;;;;;7.80;6.50;;;;;;;24.34;17.55;101826.72;5123740;27;20409;-48
2022/04/13 07:49:08;;;;;;;7.05;6.15;;;;;;;23.71;18.15;101811.88;5112570;27;20541;-48
2022/04/13 07:51:39;;;;;;;8.77;6.60;;;;;;;21.37;20.77;101818.66;5118427;27;20504;-47
2022/04/13 07:54:06;;;;;;;7.63;6.40;;;;;;;18.76;23.58;101828.31;5122266;27;20509;-48
2022/04/13 07:56:35;;;;;;;7.38;6.50;;;;;;;17.99;24.68;101824.63;5120927;27;20405;-47
2022/04/13 07:59:03;;;;;;;9.73;7.43;;;;;;;17.09;25.96;101833.88;5112641;28;20403;-47
2022/04/13 08:01:30;;;;;;;7.25;6.43;;;;;;;15.86;27.14;101838.47;5121117;27;20505;-48
2022/04/13 08:03:57;;;;;;;8.77;6.70;;;;;;;16.05;27.79;101829.16;5127596;27;20478;-46
2022/04/13 08:06:24;;;;;;;9.25;6.63;;;;;;;15.86;28.04;101843.81;5120413;27;20441;-46
2022/04/13 08:08:50;;;;;;;7.10;6.28;;;;;;;15.90;27.87;101829.09;5113703;27;20414;-47
2022/04/13 08:11:17;;;;;;;8.23;6.18;;;;;;;15.91;27.62;101836.09;5123891;27;20417;-47
2022/04/13 08:13:46;;;;;;;7.50;6.60;;;;;;;15.10;28.83;101840.81;5128119;27;20778;-46
2022/04/13 08:16:13;;;;;;;8.20;6.68;;;;;;;14.60;30.15;101831.25;5119905;27;20418;-47
2022/04/13 08:18:40;;;;;;;9.43;6.85;;;;;;;14.92;29.76;101841.03;5122124;27;20424;-48
2022/04/13 08:21:07;;;;;;;8.73;6.50;;;;;;;15.07;30.06;101833.16;5131116;27;20782;-47
2022/04/13 08:23:34;;;;;;;7.70;6.40;;;;;;;15.06;29.80;101835.00;5132681;27;20971;-46
2022/04/13 08:26:01;;;;;;;9.45;6.75;;;;;;;15.03;29.82;101843.34;5132745;27;20412;-47
2022/04/13 08:28:28;;;;;;;7.13;6.25;;;;;;;14.83;29.98;101832.22;5132444;27;20489;-46
2022/04/13 08:30:57;;;;;;;8.02;6.82;;;;;;;14.53;30.45;101823.91;5132840;27;20414;-47
2022/04/13 08:33:24;;;;;;;9.02;6.90;;;;;;;15.01;29.96;101832.00;5118458;27;20400;-47
2022/04/13 08:35:51;;;;;;;8.25;6.53;;;;;;;15.07;29.97;101834.00;5122246;27;20416;-47
2022/04/13 08:38:18;;;;;;;8.57;6.78;;;;;;;15.13;30.17;101828.97;5130893;27;20414;-47
2022/04/13 08:40:50;;;;;;;7.35;6.45;;;;;;;14.71;30.61;101823.75;5130963;27;20456;-46
2022/04/13 08:43:25;;;;;;;8.82;6.38;;;;;;;14.42;31.03;101826.94;5131778;27;20437;-46
2022/04/13 08:45:56;;;;;;;8.35;6.93;;;;;;;14.39;31.94;101829.09;5131889;27;20406;-47
2022/04/13 08:48:27;;;;;;;7.85;6.45;;;;;;;14.57;31.47;101816.41;5130829;27;20417;-46
2022/04/13 08:51:00;;;;;;;8.98;6.60;;;;;;;14.70;31.33;101819.41;5127946;27;20906;-45
2022/04/13 08:53:30;;;;;;;9.52;7.60;;;;;;;14.65;31.56;101816.41;5129751;27;20502;-47
2022/04/13 08:55:59;;;;;;;8.88;7.05;;;;;;;14.71;31.17;101806.88;5127670;27;20402;-46
2022/04/13 08:58:36;;;;;;;8.85;6.68;;;;;;;15.06;30.93;101821.63;5131729;27;20413;-45
2022/04/13 09:01:09;;;;;;;9.45;6.70;;;;;;;15.01;30.65;101807.16;5132257;27;20429;-48
2022/04/13 09:03:43;;;;;;;8.40;7.20;;;;;;;15.53;29.93;101803.91;5131914;27;20402;-47
2022/04/13 09:06:16;;;;;;;10.20;7.47;;;;;;;15.57;29.59;101805.19;5127406;27;20785;-50
2022/04/13 09:08:49;;;;;;;9.95;7.00;;;;;;;15.28;30.64;101798.66;5112429;27;20407;-47
2022/04/13 09:11:17;;;;;;;8.47;7.10;;;;;;;15.05;30.38;101805.78;5118403;27;20461;-46
2022/04/13 09:13:45;;;;;;;8.98;7.05;;;;;;;15.33;30.41;101803.50;5121808;27;20410;-48
2022/04/13 09:16:13;;;;;;;9.15;7.50;;;;;;;15.25;30.56;101798.19;5121674;27;20412;-48
2022/04/13 09:18:42;;;;;;;9.30;7.53;;;;;;;15.49;30.43;101786.56;5116742;27;20407;-49
2022/04/13 09:21:12;;;;;;;8.85;7.65;;;;;;;15.98;30.11;101780.06;5116736;27;20861;-46
2022/04/13 09:23:39;;;;;;;9.50;7.68;;;;;;;15.95;30.08;101775.06;5112140;28;20454;-46
2022/04/13 09:26:08;;;;;;;8.80;7.07;;;;;;;16.20;29.81;101775.69;5111997;27;20495;-49
2022/04/13 09:28:37;;;;;;;9.55;7.45;;;;;;;16.34;29.74;101769.53;5132088;27;20484;-48
2022/04/13 09:31:04;;;;;;;8.77;7.38;;;;;;;16.17;29.82;101781.41;5125161;27;20489;-47
2022/04/13 09:33:31;;;;;;;7.47;6.30;;;;;;;15.57;30.19;101778.47;5123074;27;20441;-49
2022/04/13 09:36:04;;;;;;;8.68;6.85;;;;;;;15.85;30.28;101765.44;5116668;27;20508;-47
2022/04/13 09:38:33;;;;;;;10.15;6.88;;;;;;;16.15;29.98;101765.56;5104260;28;20414;-47
2022/04/13 09:41:08;;;;;;;9.18;6.93;;;;;;;16.48;29.67;101761.72;5113399;27;20432;-47
2022/04/13 09:43:35;;;;;;;8.95;7.22;;;;;;;16.50;29.22;101754.34;5114250;27;20410;-48
2022/04/13 09:46:03;;;;;;;9.73;6.75;;;;;;;16.49;29.64;101750.81;5110324;27;20917;-49
2022/04/13 09:48:31;;;;;;;8.30;7.32;;;;;;;16.39;29.48;101753.78;5114855;27;20911;-47
2022/04/13 09:51:01;;;;;;;8.30;7.03;;;;;;;16.05;29.99;101744.38;5128879;27;20418;-47
2022/04/13 09:53:28;;;;;;;11.40;7.70;;;;;;;16.41;29.86;101746.38;5130470;27;20441;-47
2022/04/13 09:55:56;;;;;;;9.02;6.97;;;;;;;16.65;29.01;101746.31;5129356;27;20410;-48
2022/04/13 09:58:25;;;;;;;9.65;6.78;;;;;;;16.33;29.26;101742.97;5127750;27;20410;-48
2022/04/13 10:00:55;;;;;;;8.80;6.70;;;;;;;16.46;29.00;101731.63;5119360;27;20921;-51
2022/04/13 10:03:23;;;;;;;9.07;6.60;;;;;;;16.52;28.32;101725.53;5113845;27;20415;-48
2022/04/13 10:05:52;;;;;;;8.43;6.30;;;;;;;16.62;28.55;101728.78;5114111;27;20497;-48
2022/04/13 10:08:23;;;;;;;8.25;6.50;;;;;;;16.36;28.47;101727.38;5111053;27;20407;-47
2022/04/13 10:10:51;;;;;;;8.73;6.45;;;;;;;16.73;28.36;101730.16;5110951;28;20901;-48
2022/04/13 10:13:32;;;;;;;8.65;6.53;;;;;;;16.76;28.05;101735.13;5110920;27;20486;-47
2022/04/13 10:16:01;;;;;;;8.15;6.75;;;;;;;16.53;28.27;101724.50;5110851;27;20408;-47
2022/04/13 10:18:31;;;;;;;8.27;6.37;;;;;;;16.89;27.91;101721.97;5115383;27;20411;-47
2022/04/13 10:20:58;;;;;;;9.05;6.63;;;;;;;17.10;27.68;101715.78;5113096;27;20495;-49
2022/04/13 10:23:27;;;;;;;7.20;5.85;;;;;;;16.84;27.87;101720.84;5110681;27;20472;-47
2022/04/13 10:26:10;;;;;;;7.57;6.07;;;;;;;17.00;27.11;101708.06;5117568;27;20957;-48
2022/04/13 10:28:48;;;;;;;6.70;5.67;;;;;;;17.03;27.01;101714.06;5110131;28;20407;-47
2022/04/13 10:31:16;;;;;;;6.70;5.80;;;;;;;16.78;27.02;101714.34;5110606;27;20482;-50
2022/04/13 10:33:47;;;;;;;7.30;5.82;;;;;;;16.76;27.16;101705.66;5110970;27;20439;-47
2022/04/13 10:36:15;;;;;;;7.28;5.80;;;;;;;16.88;26.83;101708.75;5117179;27;20441;-47
2022/04/13 10:38:44;;;;;;;6.97;5.30;;;;;;;17.14;26.13;101700.19;5110583;28;20411;-47
2022/04/13 10:41:16;;;;;;;5.65;4.93;;;;;;;16.78;25.76;101704.47;5121989;27;20446;-47
2022/04/13 10:43:47;;;;;;;5.30;4.60;;;;;;;16.44;25.22;101697.84;5115696;27;20415;-47
2022/04/13 10:46:18;;;;;;;5.25;4.18;;;;;;;16.61;24.87;101698.47;5110167;28;20423;-47
2022/04/13 10:48:47;;;;;;;5.37;4.30;;;;;;;16.67;24.50;101696.09;5112402;27;20499;-47
2022/04/13 10:51:21;;;;;;;6.90;4.93;;;;;;;16.80;24.29;101691.75;5110257;28;20411;-48
2022/04/13 10:53:54;;;;;;;5.90;4.40;;;;;;;16.77;25.01;101686.75;5110821;28;20447;-47
2022/04/13 10:56:22;;;;;;;6.18;4.50;;;;;;;16.82;25.11;101678.97;5110135;27;20486;-48
2022/04/13 10:58:59;;;;;;;6.05;4.25;;;;;;;17.11;24.70;101676.47;5111442;27;20399;-47
2022/04/13 11:01:30;;;;;;;6.30;4.20;;;;;;;17.10;24.78;101675.59;5110033;27;20863;-48
2022/04/13 11:03:59;;;;;;;4.63;4.13;;;;;;;17.04;24.54;101670.19;5109965;28;20415;-47
2022/04/13 11:06:26;;;;;;;8.15;4.28;;;;;;;17.26;24.92;101663.81;5110012;28;20403;-50
2022/04/13 11:09:01;;;;;;;6.47;4.68;;;;;;;17.38;24.83;101656.13;5110280;27;20411;-47
2022/04/13 11:11:31;;;;;;;6.40;5.00;;;;;;;17.31;25.00;101657.91;5120903;27;20466;-48
2022/04/13 11:13:58;;;;;;;7.38;5.10;;;;;;;16.97;24.96;101652.19;5128674;27;20458;-47
2022/04/13 11:16:27;;;;;;;6.63;5.10;;;;;;;17.03;25.37;101649.78;5128520;27;20466;-47
2022/04/13 11:19:20;;;;;;;6.13;4.80;;;;;;;17.23;25.10;101647.31;5129319;28;20504;-50
2022/04/13 11:22:11;;;;;;;5.70;4.50;;;;;;;17.61;25.18;101631.78;5129562;28;20432;-47
2022/04/13 11:24:41;;;;;;;5.70;4.35;;;;;;;17.73;25.02;101637.44;5121745;28;20498;-47
2022/04/13 11:27:09;;;;;;;4.88;4.18;;;;;;;17.83;24.44;101627.19;5118344;27;20422;-47
2022/04/13 11:29:38;;;;;;;5.80;4.50;;;;;;;18.02;24.29;101630.22;5125581;27;20409;-47
2022/04/13 11:32:09;;;;;;;5.95;4.00;;;;;;;17.99;23.44;101630.63;5129686;28;20402;-48
2022/04/13 11:34:40;;;;;;;5.63;4.07;;;;;;;18.12;23.63;101630.72;5114207;28;21028;-48